Terminal Aerodrome Forecast
Issued by NWS Charleston, WV

Current Version | Previous Version | Graphics & Text | Print | Product List | Glossary On
Versions: 1 2 3 4 5 6 7 8 9 10 11 12 13 14 15 16 17 18 19 20 21 22 23 24 25 26 27 28 29 30
014
FTUS41 KRLX 221222 AAA
TAFEKN
TAF AMD
KEKN 221222Z 2212/2312 23008KT P6SM SCT200
      TEMPO 2212/2213 5SM BR SCT003
     FM221900 25010G16KT P6SM VCTS SCT050CB
     FM230100 25008KT 2SM +TSRA OVC025CB
     FM230400 26006KT 4SM SHRA VCTS OVC025CB
     FM230600 28004KT P6SM VCSH OVC020
     FM230800 30007KT P6SM OVC015=

USA.gov is the U.S. government's official web portal to all federal, state and local government web resources and services.